createdAt,value
2018-03-24T00:00:07.990Z,17.20
2018-03-24T00:01:07.977Z,18.60
2018-03-24T00:02:07.950Z,18.00
2018-03-24T00:03:07.927Z,17.50
2018-03-24T00:04:07.908Z,17.80
2018-03-24T00:05:07.890Z,17.80
2018-03-24T00:06:07.867Z,18.10
2018-03-24T00:07:07.849Z,18.50
2018-03-24T00:08:07.825Z,18.40
2018-03-24T00:09:07.810Z,18.70
2018-03-24T00:10:07.781Z,17.80
2018-03-24T00:11:07.766Z,18.40
2018-03-24T00:12:07.745Z,18.90
2018-03-24T00:13:07.722Z,18.00
2018-03-24T00:14:07.707Z,17.90
2018-03-24T00:15:07.681Z,17.90
2018-03-24T00:16:07.661Z,18.60
2018-03-24T00:17:07.643Z,19.00
2018-03-24T00:18:07.619Z,18.60
2018-03-24T00:19:07.597Z,19.90
2018-03-24T00:20:07.591Z,19.00
2018-03-24T00:21:07.556Z,19.40
2018-03-24T00:22:07.537Z,18.20
2018-03-24T00:23:07.516Z,18.60
2018-03-24T00:24:07.497Z,18.50
2018-03-24T00:25:07.476Z,18.50
2018-03-24T00:26:07.457Z,20.20
2018-03-24T00:27:07.438Z,19.90
2018-03-24T00:28:07.416Z,20.10
2018-03-24T00:29:07.394Z,19.70
2018-03-24T00:30:07.375Z,19.40
2018-03-24T00:31:07.348Z,19.00
2018-03-24T00:32:07.344Z,19.10
2018-03-24T00:33:07.310Z,18.60
2018-03-24T00:34:07.296Z,18.80
2018-03-24T00:35:07.276Z,18.60
2018-03-24T00:36:07.245Z,19.80
2018-03-24T00:37:07.226Z,18.50
2018-03-24T00:38:07.206Z,19.20
2018-03-24T00:39:07.185Z,19.30
2018-03-24T00:40:07.169Z,19.40
2018-03-24T00:41:07.150Z,19.30
2018-03-24T00:42:07.128Z,20.30
2018-03-24T00:43:07.099Z,19.30
2018-03-24T00:44:07.078Z,19.00
2018-03-24T00:45:07.066Z,20.10
2018-03-24T00:46:07.042Z,19.30
2018-03-24T00:47:07.016Z,18.90
2018-03-24T00:48:07.000Z,18.90
2018-03-24T00:49:07.000Z,20.00
2018-03-24T00:50:06.955Z,20.10
2018-03-24T00:51:06.941Z,19.60
2018-03-24T00:52:06.918Z,19.10
2018-03-24T00:53:06.896Z,19.90
2018-03-24T00:54:06.874Z,18.70
2018-03-24T00:55:06.852Z,20.20
2018-03-24T00:56:06.830Z,19.30
2018-03-24T00:57:06.814Z,19.60
2018-03-24T00:58:06.786Z,18.70
2018-03-24T00:59:06.766Z,19.70
2018-03-24T01:00:06.747Z,20.20
2018-03-24T01:01:06.723Z,19.80
2018-03-24T01:02:06.707Z,20.00
2018-03-24T01:03:06.682Z,19.60
2018-03-24T01:04:06.665Z,19.40
2018-03-24T01:05:06.644Z,19.50
2018-03-24T01:06:06.621Z,20.40
2018-03-24T01:07:06.597Z,19.10
2018-03-24T01:08:06.580Z,19.60
2018-03-24T01:09:06.565Z,19.00
2018-03-24T01:10:06.533Z,19.10
2018-03-24T01:11:06.517Z,19.30
2018-03-24T01:12:06.494Z,19.20
2018-03-24T01:13:06.480Z,19.20
2018-03-24T01:14:06.453Z,17.50
2018-03-24T01:15:06.429Z,19.10
2018-03-24T01:16:06.413Z,19.00
2018-03-24T01:17:06.386Z,18.90
2018-03-24T01:18:06.369Z,19.30
2018-03-24T01:19:06.370Z,17.40
2018-03-24T01:20:06.332Z,18.50
2018-03-24T01:21:06.304Z,19.60
2018-03-24T01:22:06.281Z,19.40
2018-03-24T01:23:06.263Z,19.00
2018-03-24T01:24:06.241Z,19.80
2018-03-24T01:25:06.225Z,18.90
2018-03-24T01:26:06.196Z,18.50
2018-03-24T01:27:06.186Z,19.30
2018-03-24T01:28:06.153Z,18.70
2018-03-24T01:29:06.134Z,18.30
2018-03-24T01:30:06.113Z,18.20
2018-03-24T01:31:06.090Z,18.70
2018-03-24T01:32:06.077Z,18.30
2018-03-24T01:33:06.050Z,18.60
2018-03-24T01:34:06.035Z,18.50
2018-03-24T01:35:06.007Z,18.80
2018-03-24T01:36:05.985Z,18.90
2018-03-24T01:37:05.962Z,18.90
2018-03-24T01:38:05.952Z,19.50
2018-03-24T01:39:05.921Z,18.40
2018-03-24T01:40:05.916Z,19.30
2018-03-24T01:41:05.884Z,17.80
2018-03-24T01:42:05.860Z,18.50
2018-03-24T01:43:05.836Z,18.50
2018-03-24T01:44:05.815Z,18.80
2018-03-24T01:45:05.799Z,19.30
2018-03-24T01:46:05.772Z,19.20
2018-03-24T01:47:05.757Z,18.80
2018-03-24T01:48:05.735Z,18.00
2018-03-24T01:49:05.710Z,18.80
2018-03-24T01:50:05.689Z,17.30
2018-03-24T01:51:05.670Z,18.00
2018-03-24T01:52:05.651Z,18.00
2018-03-24T01:53:05.625Z,18.20
2018-03-24T01:54:05.617Z,18.70
2018-03-24T01:55:05.584Z,17.50
2018-03-24T01:56:05.560Z,17.80
2018-03-24T01:57:05.539Z,17.70
2018-03-24T01:58:05.520Z,17.60
2018-03-24T01:59:05.496Z,18.40
2018-03-24T02:00:05.475Z,17.20
2018-03-24T02:01:05.456Z,18.10
2018-03-24T02:02:05.437Z,18.40
2018-03-24T02:03:05.415Z,17.70
2018-03-24T02:04:05.393Z,18.20
2018-03-24T02:05:05.369Z,18.30
2018-03-24T02:06:05.346Z,18.60
2018-03-24T02:07:05.330Z,17.60
2018-03-24T02:08:05.305Z,18.30
2018-03-24T02:09:05.284Z,18.20
2018-03-24T02:10:05.266Z,17.90
2018-03-24T02:11:05.241Z,18.20
2018-03-24T02:12:05.218Z,18.70
2018-03-24T02:13:05.205Z,18.90
2018-03-24T02:14:05.189Z,18.90
2018-03-24T02:15:05.161Z,17.70
2018-03-24T02:16:05.133Z,18.70
2018-03-24T02:17:05.114Z,18.20
2018-03-24T02:18:05.091Z,18.80
2018-03-24T02:19:05.072Z,19.10
2018-03-24T02:20:05.052Z,19.10
2018-03-24T02:21:05.026Z,18.10
2018-03-24T02:22:05.006Z,17.30
2018-03-24T02:23:04.986Z,18.30
2018-03-24T02:24:05.212Z,18.20
2018-03-24T02:25:04.946Z,18.20
2018-03-24T02:26:04.923Z,19.10
2018-03-24T02:27:04.903Z,20.10
2018-03-24T02:28:04.878Z,18.40
2018-03-24T02:29:04.856Z,18.00
2018-03-24T02:30:04.838Z,17.80
2018-03-24T02:31:04.819Z,18.80
2018-03-24T02:32:04.791Z,20.60
2018-03-24T02:33:04.776Z,19.60
2018-03-24T02:34:04.752Z,18.70
2018-03-24T02:35:04.726Z,18.70
2018-03-24T02:36:04.705Z,20.00
2018-03-24T02:37:04.687Z,20.90
2018-03-24T02:38:04.663Z,19.90
2018-03-24T02:39:04.640Z,20.60
2018-03-24T02:40:04.624Z,20.20
2018-03-24T02:41:04.605Z,19.90
2018-03-24T02:42:04.586Z,20.40
2018-03-24T02:43:04.559Z,21.70
2018-03-24T02:44:04.533Z,20.20
2018-03-24T02:45:04.524Z,21.00
2018-03-24T02:46:04.501Z,21.50
2018-03-24T02:47:04.472Z,21.00
2018-03-24T02:48:04.450Z,19.20
2018-03-24T02:49:04.436Z,21.10
2018-03-24T02:50:04.411Z,21.30
2018-03-24T02:51:04.381Z,21.60
2018-03-24T02:52:04.363Z,21.90
2018-03-24T02:53:04.351Z,21.20
2018-03-24T02:54:04.321Z,22.20
2018-03-24T02:55:04.299Z,21.70
2018-03-24T02:56:04.276Z,20.90
2018-03-24T02:57:04.255Z,22.00
2018-03-24T02:58:04.237Z,22.90
2018-03-24T02:59:04.212Z,21.80
2018-03-24T03:00:04.188Z,21.50
2018-03-24T03:01:04.176Z,21.80
2018-03-24T03:02:04.156Z,21.40
2018-03-24T03:03:04.125Z,21.70
2018-03-24T03:04:04.111Z,21.50
2018-03-24T03:05:04.085Z,22.70
2018-03-24T03:06:04.061Z,22.20
2018-03-24T03:07:04.047Z,23.20
2018-03-24T03:08:04.016Z,22.20
2018-03-24T03:09:04.001Z,23.00
2018-03-24T03:10:03.975Z,23.00
2018-03-24T03:11:03.951Z,21.30
2018-03-24T03:12:03.935Z,22.50
2018-03-24T03:13:03.912Z,22.40
2018-03-24T03:14:03.886Z,23.10
2018-03-24T03:15:03.866Z,23.10
2018-03-24T03:16:03.846Z,24.30
2018-03-24T03:17:03.828Z,23.70
2018-03-24T03:18:03.800Z,22.60
2018-03-24T03:19:03.779Z,22.50
2018-03-24T03:20:03.755Z,23.70
2018-03-24T03:21:03.737Z,21.60
2018-03-24T03:22:03.714Z,23.60
2018-03-24T03:23:03.693Z,22.40
2018-03-24T03:24:03.675Z,23.20
2018-03-24T03:25:03.650Z,23.90
2018-03-24T03:26:03.634Z,22.10
2018-03-24T03:27:03.606Z,23.20
2018-03-24T03:28:03.616Z,24.10
2018-03-24T03:29:03.562Z,23.50
2018-03-24T03:30:03.552Z,25.70
2018-03-24T03:31:03.516Z,23.60
2018-03-24T03:32:03.496Z,24.10
2018-03-24T03:33:03.514Z,23.60
2018-03-24T03:34:03.453Z,24.40
2018-03-24T03:35:03.430Z,23.60
2018-03-24T03:36:03.412Z,24.20
2018-03-24T03:37:03.386Z,24.20
2018-03-24T03:38:03.366Z,24.00
2018-03-24T03:39:03.347Z,23.90
2018-03-24T03:40:03.422Z,23.50
2018-03-24T03:41:03.301Z,22.70
2018-03-24T03:42:03.286Z,24.70
2018-03-24T03:43:03.260Z,23.60
2018-03-24T03:44:03.235Z,24.40
2018-03-24T03:45:03.213Z,23.80
2018-03-24T03:46:03.202Z,25.00
2018-03-24T03:47:03.173Z,24.90
2018-03-24T03:48:03.150Z,23.80
2018-03-24T03:49:03.127Z,24.40
2018-03-24T03:50:03.107Z,24.40
2018-03-24T03:51:03.086Z,24.40
2018-03-24T03:52:03.064Z,24.40
2018-03-24T03:53:03.040Z,25.50
2018-03-24T03:54:03.033Z,25.00
2018-03-24T03:55:02.996Z,25.10
2018-03-24T03:56:02.977Z,25.10
2018-03-24T03:57:02.957Z,22.40
2018-03-24T03:58:02.932Z,24.40
2018-03-24T03:59:02.912Z,24.80
2018-03-24T04:00:02.888Z,25.30
2018-03-24T04:01:02.864Z,24.10
2018-03-24T04:02:02.850Z,24.00
2018-03-24T04:03:02.826Z,24.00
2018-03-24T04:04:02.802Z,23.80
2018-03-24T04:05:02.781Z,24.60
2018-03-24T04:06:02.766Z,24.20
2018-03-24T04:07:02.736Z,24.50
2018-03-24T04:08:02.715Z,25.50
2018-03-24T04:09:02.694Z,24.80
2018-03-24T04:10:02.672Z,25.70
2018-03-24T04:11:02.651Z,25.00
2018-03-24T04:12:02.626Z,25.20
2018-03-24T04:13:02.603Z,24.40
2018-03-24T04:14:02.585Z,25.10
2018-03-24T04:15:02.565Z,25.30
2018-03-24T04:16:02.540Z,24.80
2018-03-24T04:17:02.522Z,24.40
2018-03-24T04:18:02.496Z,24.90
2018-03-24T04:19:02.477Z,25.30
2018-03-24T04:20:02.453Z,25.70
2018-03-24T04:21:02.429Z,25.30
2018-03-24T04:22:02.409Z,24.40
2018-03-24T04:23:02.393Z,25.80
2018-03-24T04:24:02.367Z,24.80
2018-03-24T04:25:02.343Z,24.90
2018-03-24T04:26:02.326Z,24.70
2018-03-24T04:27:02.301Z,23.70
2018-03-24T04:28:02.278Z,26.00
2018-03-24T04:29:02.258Z,25.00
2018-03-24T04:30:02.236Z,26.10
2018-03-24T04:31:02.215Z,24.70
2018-03-24T04:32:02.271Z,24.70
2018-03-24T04:33:02.186Z,24.90
2018-03-24T04:34:02.155Z,25.80
2018-03-24T04:35:02.125Z,24.70
2018-03-24T04:36:02.104Z,25.40
2018-03-24T04:37:02.084Z,25.40
2018-03-24T04:38:02.058Z,25.70
2018-03-24T04:39:02.036Z,26.00
2018-03-24T04:40:02.018Z,26.00
2018-03-24T04:41:01.994Z,25.50
2018-03-24T04:42:01.978Z,25.60
2018-03-24T04:43:01.948Z,26.30
2018-03-24T04:44:01.931Z,25.30
2018-03-24T04:45:01.914Z,26.60
2018-03-24T04:46:01.882Z,26.30
2018-03-24T04:47:01.862Z,25.20
2018-03-24T04:48:01.844Z,25.40
2018-03-24T04:49:01.820Z,25.50
2018-03-24T04:50:01.804Z,24.90
2018-03-24T04:51:01.775Z,25.30
2018-03-24T04:52:01.761Z,24.50
2018-03-24T04:53:01.734Z,24.40
2018-03-24T04:54:01.709Z,24.90
2018-03-24T04:55:01.684Z,25.90
2018-03-24T04:56:01.670Z,26.20
2018-03-24T04:57:01.654Z,24.60
2018-03-24T04:58:01.623Z,26.40
2018-03-24T04:59:01.602Z,24.90
2018-03-24T05:00:01.576Z,24.20
2018-03-24T05:01:01.556Z,25.80
2018-03-24T05:02:01.578Z,25.80
2018-03-24T05:03:01.509Z,26.30
2018-03-24T05:04:01.528Z,25.20
2018-03-24T05:05:01.475Z,25.50
2018-03-24T05:06:01.446Z,25.10
2018-03-24T05:07:01.423Z,25.70
2018-03-24T05:08:01.402Z,25.70
2018-03-24T05:09:01.384Z,25.30
2018-03-24T05:10:01.360Z,25.40
2018-03-24T05:11:01.337Z,24.50
2018-03-24T05:12:01.315Z,26.00
2018-03-24T05:13:01.295Z,25.50
2018-03-24T05:14:01.272Z,24.70
2018-03-24T05:15:01.247Z,26.20
2018-03-24T05:16:01.234Z,26.00
2018-03-24T05:17:01.205Z,26.40
2018-03-24T05:18:01.200Z,26.20
2018-03-24T05:19:01.164Z,25.70
2018-03-24T05:20:01.138Z,25.70
2018-03-24T05:21:01.118Z,24.70
2018-03-24T05:22:01.096Z,25.40
2018-03-24T05:23:01.072Z,24.90
2018-03-24T05:24:01.050Z,25.80
2018-03-24T05:25:01.036Z,25.40
2018-03-24T05:26:01.006Z,24.90
2018-03-24T05:27:00.987Z,25.40
2018-03-24T05:28:00.964Z,25.40
2018-03-24T05:29:00.939Z,25.50
2018-03-24T05:30:00.919Z,25.20
2018-03-24T05:31:00.900Z,25.70
2018-03-24T05:32:00.879Z,25.10
2018-03-24T05:33:00.854Z,24.10
2018-03-24T05:34:00.833Z,23.70
2018-03-24T05:35:00.806Z,24.80
2018-03-24T05:36:00.786Z,25.20
2018-03-24T05:37:00.765Z,24.60
2018-03-24T05:38:00.748Z,26.00
2018-03-24T05:39:00.750Z,24.70
2018-03-24T05:40:00.701Z,24.70
2018-03-24T05:41:00.681Z,24.50
2018-03-24T05:42:00.653Z,24.00
2018-03-24T05:43:00.632Z,24.00
2018-03-24T05:44:00.610Z,24.50
2018-03-24T05:45:00.591Z,23.80
2018-03-24T05:46:00.565Z,24.70
2018-03-24T05:47:00.543Z,23.70
2018-03-24T05:48:00.523Z,24.40
2018-03-24T05:49:00.505Z,23.90
2018-03-24T05:50:00.480Z,24.60
2018-03-24T05:51:00.456Z,23.00
2018-03-24T05:52:00.437Z,25.20
2018-03-24T05:53:00.414Z,24.60
2018-03-24T05:54:00.392Z,23.50
2018-03-24T05:55:00.371Z,24.10
2018-03-24T05:56:00.352Z,25.30
2018-03-24T05:57:00.321Z,24.10
2018-03-24T05:58:00.304Z,23.10
2018-03-24T05:59:00.277Z,25.00
2018-03-24T06:00:00.256Z,23.20
2018-03-24T06:01:00.234Z,24.30
2018-03-24T06:02:00.218Z,25.00
2018-03-24T06:03:00.192Z,24.30
2018-03-24T06:04:00.201Z,23.90
2018-03-24T06:05:00.145Z,24.60
2018-03-24T06:06:00.123Z,24.20
2018-03-24T06:07:00.100Z,23.90
2018-03-24T06:08:00.083Z,24.70
2018-03-24T06:09:00.054Z,23.70
2018-03-24T06:10:00.037Z,23.70
2018-03-24T06:11:00.016Z,25.20
2018-03-24T06:11:59.989Z,23.90
2018-03-24T06:12:59.979Z,24.60
2018-03-24T06:13:59.952Z,25.30
2018-03-24T06:14:59.928Z,24.80
2018-03-24T06:15:59.955Z,25.30
2018-03-24T06:16:59.880Z,24.70
2018-03-24T06:17:59.858Z,25.00
2018-03-24T06:18:59.836Z,24.30
2018-03-24T06:19:59.817Z,24.10
2018-03-24T06:20:59.790Z,24.30
2018-03-24T06:21:59.776Z,24.40
2018-03-24T06:22:59.748Z,25.00
2018-03-24T06:23:59.742Z,23.30
2018-03-24T06:24:59.703Z,23.40
2018-03-24T06:25:59.681Z,24.60
2018-03-24T06:26:59.656Z,24.60
2018-03-24T06:27:59.636Z,25.40
2018-03-24T06:28:59.611Z,25.60
2018-03-24T06:29:59.595Z,26.00
2018-03-24T06:30:59.570Z,25.40
2018-03-24T06:31:59.546Z,24.10
2018-03-24T06:32:59.525Z,24.80
2018-03-24T06:33:59.504Z,24.50
2018-03-24T06:34:59.482Z,25.60
2018-03-24T06:35:59.458Z,24.20
2018-03-24T06:36:59.436Z,25.50
2018-03-24T06:37:59.416Z,23.90
2018-03-24T06:38:59.435Z,23.20
2018-03-24T06:39:59.368Z,23.50
2018-03-24T06:40:59.351Z,24.90
2018-03-24T06:41:59.324Z,23.80
2018-03-24T06:42:59.306Z,22.90
2018-03-24T06:43:59.280Z,23.30
2018-03-24T06:44:59.320Z,25.50
2018-03-24T06:45:59.238Z,25.30
2018-03-24T06:46:59.210Z,25.30
2018-03-24T06:47:59.197Z,25.60
2018-03-24T06:48:59.172Z,24.70
2018-03-24T06:49:59.148Z,24.60
2018-03-24T06:50:59.124Z,27.20
2018-03-24T06:51:59.157Z,24.80
2018-03-24T06:52:59.085Z,26.00
2018-03-24T06:53:59.063Z,25.60
2018-03-24T06:54:59.046Z,26.10
2018-03-24T06:55:59.016Z,25.40
2018-03-24T06:56:59.000Z,25.70
2018-03-24T06:57:58.977Z,25.80
2018-03-24T06:58:58.950Z,25.40
2018-03-24T06:59:58.931Z,24.80
2018-03-24T07:00:58.905Z,25.90
2018-03-24T07:01:58.886Z,25.10
2018-03-24T07:02:58.863Z,25.90
2018-03-24T07:03:58.841Z,26.10
2018-03-24T07:04:58.833Z,25.40
2018-03-24T07:05:58.800Z,27.20
2018-03-24T07:06:58.772Z,26.20
2018-03-24T07:07:58.758Z,24.30
2018-03-24T07:08:58.730Z,26.00
2018-03-24T07:09:58.709Z,25.80
2018-03-24T07:10:58.689Z,27.30
2018-03-24T07:11:58.671Z,24.10
2018-03-24T07:12:58.643Z,25.70
2018-03-24T07:13:58.621Z,25.40
2018-03-24T07:14:58.596Z,25.30
2018-03-24T07:15:58.575Z,25.60
2018-03-24T07:16:58.563Z,24.90
2018-03-24T07:17:58.530Z,25.40
2018-03-24T07:18:58.509Z,24.60
2018-03-24T07:19:58.488Z,25.20
2018-03-24T07:20:58.471Z,26.20
2018-03-24T07:21:58.450Z,25.70
2018-03-24T07:22:58.419Z,25.10
2018-03-24T07:23:58.404Z,25.10
2018-03-24T07:24:58.380Z,24.80
2018-03-24T07:25:58.362Z,24.30
2018-03-24T07:26:58.336Z,25.30
2018-03-24T07:27:58.316Z,23.70
2018-03-24T07:28:58.315Z,24.30
2018-03-24T07:29:58.275Z,26.90
2018-03-24T07:30:58.248Z,26.50
2018-03-24T07:31:58.229Z,23.40
2018-03-24T07:32:58.213Z,23.10
2018-03-24T07:33:58.183Z,23.50
2018-03-24T07:34:58.166Z,22.60
2018-03-24T07:35:58.143Z,23.10
2018-03-24T07:36:58.124Z,25.20
2018-03-24T07:37:58.102Z,22.80
2018-03-24T07:38:58.080Z,22.20
2018-03-24T07:39:58.058Z,22.50
2018-03-24T07:40:58.034Z,22.10
2018-03-24T07:41:58.012Z,22.70
2018-03-24T07:42:57.992Z,23.20
2018-03-24T07:43:57.968Z,21.40
2018-03-24T07:44:57.956Z,21.80
2018-03-24T07:45:57.928Z,21.60
2018-03-24T07:46:57.908Z,21.30
2018-03-24T07:47:57.881Z,20.40
2018-03-24T07:48:57.862Z,22.40
2018-03-24T07:49:57.841Z,22.10
2018-03-24T07:50:57.820Z,21.50
2018-03-24T07:51:57.797Z,21.80
2018-03-24T07:52:57.786Z,20.90
2018-03-24T07:53:57.754Z,20.90
2018-03-24T07:54:57.735Z,19.70
2018-03-24T07:55:57.713Z,20.70
2018-03-24T07:56:57.691Z,21.20
2018-03-24T07:57:57.672Z,21.50
2018-03-24T07:58:57.651Z,22.60
2018-03-24T07:59:57.630Z,21.20
2018-03-24T08:00:57.607Z,21.10
2018-03-24T08:01:57.590Z,21.10
2018-03-24T08:02:57.571Z,22.30
2018-03-24T08:03:57.548Z,21.90
2018-03-24T08:04:57.524Z,21.00
2018-03-24T08:05:57.500Z,20.60
2018-03-24T08:06:57.489Z,21.70
2018-03-24T08:07:57.464Z,19.70
2018-03-24T08:08:57.437Z,21.00
2018-03-24T08:09:57.418Z,21.40
2018-03-24T08:10:57.398Z,21.60
2018-03-24T08:11:57.373Z,20.70
2018-03-24T08:12:57.353Z,19.90
2018-03-24T08:13:57.334Z,19.80
2018-03-24T08:14:57.311Z,20.70
2018-03-24T08:15:57.295Z,20.60
2018-03-24T08:16:57.277Z,20.60
2018-03-24T08:17:57.257Z,21.60
2018-03-24T08:18:57.232Z,21.00
2018-03-24T08:19:57.214Z,21.70
2018-03-24T08:20:57.187Z,21.60
2018-03-24T08:21:57.176Z,22.50
2018-03-24T08:22:57.141Z,22.30
2018-03-24T08:23:57.120Z,21.70
2018-03-24T08:24:57.110Z,21.30
2018-03-24T08:25:57.081Z,23.30
2018-03-24T08:26:57.064Z,23.10
2018-03-24T08:27:57.037Z,21.60
2018-03-24T08:28:57.018Z,22.90
2018-03-24T08:29:57.001Z,22.30
2018-03-24T08:30:56.978Z,21.20
2018-03-24T08:31:56.956Z,23.10
2018-03-24T08:32:56.937Z,21.20
2018-03-24T08:33:56.916Z,21.10
2018-03-24T08:34:56.895Z,20.90
2018-03-24T08:35:56.878Z,22.10
2018-03-24T08:36:56.856Z,21.90
2018-03-24T08:37:56.836Z,21.10
2018-03-24T08:38:56.815Z,21.70
2018-03-24T08:39:56.795Z,21.80
2018-03-24T08:40:56.779Z,21.20
2018-03-24T08:41:56.756Z,20.60
2018-03-24T08:42:56.732Z,21.40
2018-03-24T08:43:56.711Z,21.60
2018-03-24T08:44:56.698Z,19.90
2018-03-24T08:45:56.667Z,21.90
2018-03-24T08:46:56.655Z,21.90
2018-03-24T08:47:56.629Z,21.60
2018-03-24T08:48:56.610Z,21.00
2018-03-24T08:49:56.594Z,21.40
2018-03-24T08:50:56.577Z,22.50
2018-03-24T08:51:56.555Z,20.80
2018-03-24T08:52:56.535Z,20.70
2018-03-24T08:53:56.506Z,23.00
2018-03-24T08:54:56.489Z,22.80
2018-03-24T08:55:56.469Z,23.30
2018-03-24T08:56:56.456Z,23.00
2018-03-24T08:57:56.439Z,23.40
2018-03-24T08:58:56.410Z,21.80
2018-03-24T08:59:56.395Z,21.70
2018-03-24T09:00:56.367Z,22.30
2018-03-24T09:01:56.356Z,21.60
2018-03-24T09:02:56.323Z,20.80
2018-03-24T09:03:56.306Z,21.30
2018-03-24T09:04:56.287Z,22.70
2018-03-24T09:05:56.268Z,22.70
2018-03-24T09:06:56.246Z,22.40
2018-03-24T09:07:56.223Z,21.20
2018-03-24T09:08:56.204Z,21.50
2018-03-24T09:09:56.186Z,23.40
2018-03-24T09:10:56.162Z,22.50
2018-03-24T09:11:56.152Z,21.80
2018-03-24T09:12:56.122Z,20.50
2018-03-24T09:13:56.105Z,20.70
2018-03-24T09:14:56.085Z,20.50
2018-03-24T09:15:56.082Z,20.70
2018-03-24T09:16:56.061Z,21.10
2018-03-24T09:17:56.022Z,21.30
2018-03-24T09:18:56.004Z,20.50
2018-03-24T09:19:55.994Z,20.60
2018-03-24T09:20:55.965Z,21.40
2018-03-24T09:21:55.947Z,19.70
2018-03-24T09:22:55.925Z,21.00
2018-03-24T09:23:55.901Z,19.00
2018-03-24T09:24:55.885Z,19.90
2018-03-24T09:25:55.870Z,19.50
2018-03-24T09:26:55.845Z,20.30
2018-03-24T09:27:55.830Z,20.80
2018-03-24T09:28:55.817Z,19.80
2018-03-24T09:29:55.781Z,19.60
2018-03-24T09:30:55.771Z,20.40
2018-03-24T09:31:55.746Z,19.90
2018-03-24T09:32:55.728Z,19.10
2018-03-24T09:33:55.704Z,20.00
2018-03-24T09:34:55.695Z,20.20
2018-03-24T09:35:55.669Z,20.40
2018-03-24T09:36:55.656Z,20.50
2018-03-24T09:37:55.624Z,19.70
2018-03-24T09:38:55.607Z,19.90
2018-03-24T09:39:55.587Z,18.30
2018-03-24T09:40:55.566Z,18.10
2018-03-24T09:41:55.545Z,18.80
2018-03-24T09:42:55.526Z,17.00
2018-03-24T09:43:55.506Z,17.10
2018-03-24T09:44:55.486Z,17.60
2018-03-24T09:45:55.467Z,18.60
2018-03-24T09:46:55.451Z,18.50
2018-03-24T09:47:55.437Z,19.60
2018-03-24T09:48:55.406Z,19.70
2018-03-24T09:49:55.389Z,20.00
2018-03-24T09:50:55.371Z,18.60
2018-03-24T09:51:55.352Z,18.80
2018-03-24T09:52:55.375Z,17.80
2018-03-24T09:53:55.314Z,17.40
2018-03-24T09:54:55.307Z,19.00
2018-03-24T09:55:55.272Z,18.10
2018-03-24T09:56:55.306Z,17.90
2018-03-24T09:57:55.238Z,16.90
2018-03-24T09:58:55.213Z,17.10
2018-03-24T09:59:55.200Z,18.40
2018-03-24T10:00:55.175Z,18.20
2018-03-24T10:01:55.157Z,19.20
2018-03-24T10:02:55.138Z,17.50
2018-03-24T10:03:55.114Z,17.60
2018-03-24T10:04:55.109Z,17.30
2018-03-24T10:05:55.076Z,16.20
2018-03-24T10:06:55.056Z,17.00
2018-03-24T10:07:55.043Z,16.60
2018-03-24T10:08:55.026Z,17.10
2018-03-24T10:09:55.007Z,16.80
2018-03-24T10:10:54.985Z,17.00
2018-03-24T10:11:54.962Z,16.90
2018-03-24T10:12:54.947Z,16.80
2018-03-24T10:13:54.926Z,15.80
2018-03-24T10:14:54.907Z,16.50
2018-03-24T10:15:54.888Z,15.20
2018-03-24T10:16:54.866Z,14.20
2018-03-24T10:17:54.855Z,14.90
2018-03-24T10:18:54.828Z,13.80
2018-03-24T10:19:54.814Z,14.80
2018-03-24T10:20:54.789Z,15.10
2018-03-24T10:21:54.777Z,15.10
2018-03-24T10:22:54.754Z,15.90
2018-03-24T10:23:54.734Z,16.30
2018-03-24T10:24:54.714Z,15.50
2018-03-24T10:25:54.696Z,15.00
2018-03-24T10:26:54.681Z,14.70
2018-03-24T10:27:54.656Z,15.20
2018-03-24T10:28:54.702Z,14.10
2018-03-24T10:29:54.617Z,14.10
2018-03-24T10:30:54.595Z,15.30
2018-03-24T10:31:54.580Z,14.40
2018-03-24T10:32:54.566Z,14.10
2018-03-24T10:33:54.552Z,14.80
2018-03-24T10:34:54.532Z,14.00
2018-03-24T10:35:54.517Z,14.70
2018-03-24T10:36:54.485Z,14.50
2018-03-24T10:37:54.476Z,14.30
2018-03-24T10:38:54.445Z,14.50
2018-03-24T10:39:54.433Z,14.80
2018-03-24T10:40:54.413Z,14.70
2018-03-24T10:41:54.393Z,15.00
2018-03-24T10:42:54.380Z,14.70
2018-03-24T10:43:54.356Z,15.00
2018-03-24T10:44:54.335Z,13.80
2018-03-24T10:45:54.316Z,14.00
2018-03-24T10:46:54.295Z,14.80
2018-03-24T10:47:54.276Z,14.20
2018-03-24T10:48:54.258Z,13.80
2018-03-24T10:49:54.237Z,13.70
2018-03-24T10:50:54.228Z,14.00
2018-03-24T10:51:54.204Z,13.80
2018-03-24T10:52:54.182Z,13.90
2018-03-24T10:53:54.170Z,12.90
2018-03-24T10:54:54.150Z,13.80
2018-03-24T10:55:54.129Z,13.60
2018-03-24T10:56:54.110Z,13.40
2018-03-24T10:57:54.097Z,12.90
2018-03-24T10:58:54.075Z,13.30
2018-03-24T10:59:54.061Z,14.20
2018-03-24T11:00:54.039Z,14.20
2018-03-24T11:01:54.014Z,13.40
2018-03-24T11:02:53.997Z,13.60
2018-03-24T11:03:53.983Z,12.00
2018-03-24T11:04:53.959Z,12.20
2018-03-24T11:05:53.943Z,12.10
2018-03-24T11:06:53.924Z,12.70
2018-03-24T11:07:53.904Z,13.50
2018-03-24T11:08:53.894Z,13.30
2018-03-24T11:09:53.869Z,14.20
2018-03-24T11:10:53.847Z,13.40
2018-03-24T11:11:53.832Z,13.70
2018-03-24T11:12:53.809Z,12.40
2018-03-24T11:13:53.793Z,12.60
2018-03-24T11:14:53.776Z,13.00
2018-03-24T11:15:53.759Z,12.70
2018-03-24T11:16:53.734Z,13.40
2018-03-24T11:17:53.717Z,11.80
2018-03-24T11:18:53.700Z,13.00
2018-03-24T11:19:53.687Z,12.80
2018-03-24T11:20:53.664Z,13.60
2018-03-24T11:21:53.647Z,14.90
2018-03-24T11:22:53.624Z,14.40
2018-03-24T11:23:53.606Z,14.20
2018-03-24T11:24:53.588Z,13.50
2018-03-24T11:25:53.574Z,14.40
2018-03-24T11:26:53.546Z,13.80
2018-03-24T11:27:53.528Z,13.90
2018-03-24T11:28:53.513Z,14.10
2018-03-24T11:29:53.499Z,14.30
2018-03-24T11:30:53.473Z,13.70
2018-03-24T11:31:53.458Z,14.60
2018-03-24T11:32:53.434Z,14.20
2018-03-24T11:33:53.423Z,14.70
2018-03-24T11:34:53.404Z,15.10
2018-03-24T11:35:53.377Z,16.50
2018-03-24T11:36:53.363Z,15.20
2018-03-24T11:37:53.347Z,15.20
2018-03-24T11:38:53.373Z,15.60
2018-03-24T11:39:53.309Z,14.30
2018-03-24T11:40:53.289Z,15.20
2018-03-24T11:41:53.272Z,14.90
2018-03-24T11:42:53.249Z,15.30
2018-03-24T11:43:53.234Z,15.60
2018-03-24T11:44:53.232Z,15.00
2018-03-24T11:45:53.195Z,15.40
2018-03-24T11:46:53.181Z,16.20
2018-03-24T11:47:53.162Z,15.50
2018-03-24T11:48:53.134Z,14.30
2018-03-24T11:49:53.115Z,14.60
2018-03-24T11:50:53.100Z,15.00
2018-03-24T11:51:53.079Z,15.40
2018-03-24T11:52:53.065Z,14.80
2018-03-24T11:53:53.048Z,14.30
2018-03-24T11:54:53.023Z,14.20
2018-03-24T11:55:53.011Z,14.70
2018-03-24T11:56:52.986Z,14.40
2018-03-24T11:57:52.977Z,14.90
2018-03-24T11:58:52.953Z,14.90
2018-03-24T11:59:52.935Z,14.80
2018-03-24T12:00:52.918Z,14.90
2018-03-24T12:01:52.897Z,14.80
2018-03-24T12:02:52.872Z,15.20
2018-03-24T12:03:52.860Z,17.10
2018-03-24T12:04:52.835Z,16.10
2018-03-24T12:05:52.817Z,16.40
2018-03-24T12:06:52.806Z,16.00
2018-03-24T12:07:52.793Z,16.20
2018-03-24T12:08:52.759Z,15.10
2018-03-24T12:09:52.737Z,16.10
2018-03-24T12:10:52.724Z,15.50
2018-03-24T12:11:52.715Z,15.40
2018-03-24T12:12:52.687Z,15.80
2018-03-24T12:13:52.668Z,15.80
2018-03-24T12:14:52.649Z,16.90
2018-03-24T12:15:52.638Z,16.40
2018-03-24T12:16:52.623Z,16.40
2018-03-24T12:17:52.601Z,16.60
2018-03-24T12:18:52.579Z,16.60
2018-03-24T12:19:52.557Z,16.40
2018-03-24T12:20:52.537Z,16.20
2018-03-24T12:21:52.518Z,16.10
2018-03-24T12:22:52.508Z,16.30
2018-03-24T12:23:52.477Z,15.40
2018-03-24T12:24:52.464Z,15.50
2018-03-24T12:25:52.450Z,16.60
2018-03-24T12:26:52.425Z,15.40
2018-03-24T12:27:52.407Z,15.10
2018-03-24T12:28:52.385Z,15.20
2018-03-24T12:29:52.363Z,16.30
2018-03-24T12:30:52.348Z,15.30
2018-03-24T12:31:52.331Z,16.10
2018-03-24T12:32:52.308Z,16.30
2018-03-24T12:33:52.295Z,17.90
2018-03-24T12:34:52.273Z,16.90
2018-03-24T12:35:52.254Z,16.70
2018-03-24T12:36:52.237Z,17.20
2018-03-24T12:37:52.215Z,16.60
2018-03-24T12:38:52.207Z,17.90
2018-03-24T12:39:52.186Z,16.20
2018-03-24T12:40:52.161Z,16.40
2018-03-24T12:41:52.142Z,15.70
2018-03-24T12:42:52.128Z,16.40
2018-03-24T12:43:52.104Z,16.10
2018-03-24T12:44:52.095Z,15.80
2018-03-24T12:45:52.072Z,16.00
2018-03-24T12:46:52.049Z,16.00
2018-03-24T12:47:52.039Z,15.50
2018-03-24T12:48:52.015Z,14.10
2018-03-24T12:49:51.997Z,14.40
2018-03-24T12:50:51.979Z,13.80
2018-03-24T12:51:51.956Z,14.80